sensor_id;sensor_type;location;lat;lon;timestamp;P1;durP1;ratioP1;P2;durP2;ratioP2
26271;SDS011;13997;48.902;12.472;2023-03-02T00:02:09;35.55;;;17.80;;
26271;SDS011;13997;48.902;12.472;2023-03-02T00:04:40;39.83;;;17.48;;
26271;SDS011;13997;48.902;12.472;2023-03-02T00:07:21;41.08;;;19.30;;
26271;SDS011;13997;48.902;12.472;2023-03-02T00:09:50;42.00;;;19.17;;
26271;SDS011;13997;48.902;12.472;2023-03-02T00:12:17;43.00;;;18.73;;
26271;SDS011;13997;48.902;12.472;2023-03-02T00:14:43;40.13;;;17.75;;
26271;SDS011;13997;48.902;12.472;2023-03-02T00:17:08;36.40;;;17.30;;
26271;SDS011;13997;48.902;12.472;2023-03-02T00:19:34;35.13;;;16.58;;
26271;SDS011;13997;48.902;12.472;2023-03-02T00:22:00;36.70;;;17.75;;
26271;SDS011;13997;48.902;12.472;2023-03-02T00:24:26;37.67;;;18.02;;
26271;SDS011;13997;48.902;12.472;2023-03-02T00:26:52;39.22;;;18.73;;
26271;SDS011;13997;48.902;12.472;2023-03-02T00:29:17;38.03;;;18.15;;
26271;SDS011;13997;48.902;12.472;2023-03-02T00:31:43;34.00;;;16.40;;
26271;SDS011;13997;48.902;12.472;2023-03-02T00:34:08;32.53;;;16.15;;
26271;SDS011;13997;48.902;12.472;2023-03-02T00:36:34;31.27;;;15.27;;
26271;SDS011;13997;48.902;12.472;2023-03-02T00:39:00;29.75;;;15.15;;
26271;SDS011;13997;48.902;12.472;2023-03-02T00:41:25;29.50;;;15.98;;
26271;SDS011;13997;48.902;12.472;2023-03-02T00:43:51;34.10;;;15.50;;
26271;SDS011;13997;48.902;12.472;2023-03-02T00:46:18;31.10;;;14.75;;
26271;SDS011;13997;48.902;12.472;2023-03-02T00:48:45;30.13;;;14.27;;
26271;SDS011;13997;48.902;12.472;2023-03-02T00:51:11;30.70;;;14.82;;
26271;SDS011;13997;48.902;12.472;2023-03-02T00:53:37;30.08;;;14.10;;
26271;SDS011;13997;48.902;12.472;2023-03-02T00:56:03;30.05;;;14.85;;
26271;SDS011;13997;48.902;12.472;2023-03-02T00:58:30;30.13;;;13.43;;
26271;SDS011;13997;48.902;12.472;2023-03-02T01:00:56;28.38;;;13.60;;
26271;SDS011;13997;48.902;12.472;2023-03-02T01:03:22;27.02;;;12.55;;
26271;SDS011;13997;48.902;12.472;2023-03-02T01:05:48;29.13;;;13.45;;
26271;SDS011;13997;48.902;12.472;2023-03-02T01:08:19;24.52;;;13.02;;
26271;SDS011;13997;48.902;12.472;2023-03-02T01:10:45;25.17;;;12.32;;
26271;SDS011;13997;48.902;12.472;2023-03-02T01:13:10;26.33;;;12.90;;
26271;SDS011;13997;48.902;12.472;2023-03-02T01:15:36;28.15;;;13.10;;
26271;SDS011;13997;48.902;12.472;2023-03-02T01:18:01;24.38;;;12.68;;
26271;SDS011;13997;48.902;12.472;2023-03-02T01:20:27;27.48;;;13.75;;
26271;SDS011;13997;48.902;12.472;2023-03-02T01:22:53;25.52;;;12.95;;
26271;SDS011;13997;48.902;12.472;2023-03-02T01:25:19;25.65;;;12.65;;
26271;SDS011;13997;48.902;12.472;2023-03-02T01:27:45;28.88;;;14.05;;
26271;SDS011;13997;48.902;12.472;2023-03-02T01:30:11;29.17;;;13.90;;
26271;SDS011;13997;48.902;12.472;2023-03-02T01:32:37;28.75;;;13.05;;
26271;SDS011;13997;48.902;12.472;2023-03-02T01:35:02;24.95;;;13.02;;
26271;SDS011;13997;48.902;12.472;2023-03-02T01:37:28;27.95;;;13.35;;
26271;SDS011;13997;48.902;12.472;2023-03-02T01:39:54;31.55;;;14.27;;
26271;SDS011;13997;48.902;12.472;2023-03-02T01:42:19;34.03;;;13.93;;
26271;SDS011;13997;48.902;12.472;2023-03-02T01:44:49;32.78;;;14.10;;
26271;SDS011;13997;48.902;12.472;2023-03-02T01:47:26;32.10;;;14.02;;
26271;SDS011;13997;48.902;12.472;2023-03-02T01:49:58;29.20;;;13.32;;
26271;SDS011;13997;48.902;12.472;2023-03-02T01:52:26;27.70;;;13.35;;
26271;SDS011;13997;48.902;12.472;2023-03-02T01:54:55;30.08;;;15.05;;
26271;SDS011;13997;48.902;12.472;2023-03-02T01:57:26;27.35;;;13.13;;
26271;SDS011;13997;48.902;12.472;2023-03-02T01:59:56;29.73;;;13.60;;
26271;SDS011;13997;48.902;12.472;2023-03-02T02:02:25;28.00;;;13.45;;
26271;SDS011;13997;48.902;12.472;2023-03-02T02:04:51;31.77;;;13.73;;
26271;SDS011;13997;48.902;12.472;2023-03-02T02:07:18;27.30;;;13.77;;
26271;SDS011;13997;48.902;12.472;2023-03-02T02:09:45;26.73;;;13.57;;
26271;SDS011;13997;48.902;12.472;2023-03-02T02:12:20;29.52;;;13.35;;
26271;SDS011;13997;48.902;12.472;2023-03-02T02:14:46;26.13;;;12.75;;
26271;SDS011;13997;48.902;12.472;2023-03-02T02:17:13;27.45;;;13.30;;
26271;SDS011;13997;48.902;12.472;2023-03-02T02:19:51;28.63;;;12.93;;
26271;SDS011;13997;48.902;12.472;2023-03-02T02:22:56;30.88;;;13.20;;
26271;SDS011;13997;48.902;12.472;2023-03-02T02:25:21;27.48;;;12.48;;
26271;SDS011;13997;48.902;12.472;2023-03-02T02:28:05;27.38;;;13.02;;
26271;SDS011;13997;48.902;12.472;2023-03-02T02:30:35;27.58;;;13.00;;
26271;SDS011;13997;48.902;12.472;2023-03-02T02:33:03;31.35;;;13.63;;
26271;SDS011;13997;48.902;12.472;2023-03-02T02:35:29;30.27;;;14.07;;
26271;SDS011;13997;48.902;12.472;2023-03-02T02:38:02;29.73;;;13.07;;
26271;SDS011;13997;48.902;12.472;2023-03-02T02:43:10;26.85;;;12.52;;
26271;SDS011;13997;48.902;12.472;2023-03-02T02:45:38;26.88;;;12.93;;
26271;SDS011;13997;48.902;12.472;2023-03-02T02:48:04;29.45;;;13.70;;
26271;SDS011;13997;48.902;12.472;2023-03-02T02:50:39;27.33;;;13.45;;
26271;SDS011;13997;48.902;12.472;2023-03-02T02:53:06;26.25;;;13.52;;
26271;SDS011;13997;48.902;12.472;2023-03-02T02:55:38;30.33;;;14.60;;
26271;SDS011;13997;48.902;12.472;2023-03-02T02:58:08;34.70;;;14.32;;
26271;SDS011;13997;48.902;12.472;2023-03-02T03:00:49;28.02;;;13.65;;
26271;SDS011;13997;48.902;12.472;2023-03-02T03:03:26;28.30;;;13.40;;
26271;SDS011;13997;48.902;12.472;2023-03-02T03:05:58;33.83;;;14.52;;
26271;SDS011;13997;48.902;12.472;2023-03-02T03:11:11;30.83;;;14.57;;
26271;SDS011;13997;48.902;12.472;2023-03-02T03:13:38;29.77;;;14.48;;
26271;SDS011;13997;48.902;12.472;2023-03-02T03:16:06;31.08;;;14.40;;
26271;SDS011;13997;48.902;12.472;2023-03-02T03:18:36;30.23;;;14.55;;
26271;SDS011;13997;48.902;12.472;2023-03-02T03:21:02;28.73;;;14.65;;
26271;SDS011;13997;48.902;12.472;2023-03-02T03:23:28;32.08;;;14.68;;
26271;SDS011;13997;48.902;12.472;2023-03-02T03:25:54;35.95;;;15.82;;
26271;SDS011;13997;48.902;12.472;2023-03-02T03:28:20;38.10;;;15.93;;
26271;SDS011;13997;48.902;12.472;2023-03-02T03:30:45;31.65;;;15.35;;
26271;SDS011;13997;48.902;12.472;2023-03-02T03:33:11;33.70;;;15.48;;
26271;SDS011;13997;48.902;12.472;2023-03-02T03:35:37;29.65;;;14.32;;
26271;SDS011;13997;48.902;12.472;2023-03-02T03:38:06;36.15;;;15.23;;
26271;SDS011;13997;48.902;12.472;2023-03-02T03:40:32;35.47;;;15.32;;
26271;SDS011;13997;48.902;12.472;2023-03-02T03:43:01;32.70;;;15.73;;
26271;SDS011;13997;48.902;12.472;2023-03-02T03:45:28;31.70;;;14.68;;
26271;SDS011;13997;48.902;12.472;2023-03-02T03:47:54;29.77;;;14.65;;
26271;SDS011;13997;48.902;12.472;2023-03-02T03:50:19;32.45;;;15.68;;
26271;SDS011;13997;48.902;12.472;2023-03-02T03:52:45;31.25;;;14.82;;
26271;SDS011;13997;48.902;12.472;2023-03-02T03:55:11;36.50;;;15.68;;
26271;SDS011;13997;48.902;12.472;2023-03-02T03:57:37;33.72;;;15.18;;
26271;SDS011;13997;48.902;12.472;2023-03-02T04:00:04;31.27;;;14.65;;
26271;SDS011;13997;48.902;12.472;2023-03-02T04:02:32;31.45;;;14.80;;
26271;SDS011;13997;48.902;12.472;2023-03-02T04:04:58;34.22;;;15.35;;
26271;SDS011;13997;48.902;12.472;2023-03-02T04:07:34;35.20;;;15.07;;
26271;SDS011;13997;48.902;12.472;2023-03-02T04:10:00;31.00;;;14.93;;
26271;SDS011;13997;48.902;12.472;2023-03-02T04:12:30;32.83;;;15.43;;
26271;SDS011;13997;48.902;12.472;2023-03-02T04:14:56;31.33;;;15.15;;
26271;SDS011;13997;48.902;12.472;2023-03-02T04:17:22;34.40;;;15.18;;
26271;SDS011;13997;48.902;12.472;2023-03-02T04:19:48;33.53;;;15.13;;
26271;SDS011;13997;48.902;12.472;2023-03-02T04:22:13;30.73;;;14.23;;
26271;SDS011;13997;48.902;12.472;2023-03-02T04:24:40;35.92;;;14.90;;
26271;SDS011;13997;48.902;12.472;2023-03-02T04:27:06;38.92;;;15.60;;
26271;SDS011;13997;48.902;12.472;2023-03-02T04:29:32;36.00;;;14.85;;
26271;SDS011;13997;48.902;12.472;2023-03-02T04:31:58;30.67;;;13.90;;
26271;SDS011;13997;48.902;12.472;2023-03-02T04:34:24;30.05;;;15.65;;
26271;SDS011;13997;48.902;12.472;2023-03-02T04:36:50;31.48;;;15.65;;
26271;SDS011;13997;48.902;12.472;2023-03-02T04:39:17;35.65;;;14.85;;
26271;SDS011;13997;48.902;12.472;2023-03-02T04:41:43;33.75;;;14.57;;
26271;SDS011;13997;48.902;12.472;2023-03-02T04:44:10;28.65;;;14.45;;
26271;SDS011;13997;48.902;12.472;2023-03-02T04:46:37;31.33;;;14.50;;
26271;SDS011;13997;48.902;12.472;2023-03-02T04:49:03;38.55;;;16.73;;
26271;SDS011;13997;48.902;12.472;2023-03-02T04:51:30;42.08;;;18.15;;
26271;SDS011;13997;48.902;12.472;2023-03-02T04:53:59;34.30;;;15.38;;
26271;SDS011;13997;48.902;12.472;2023-03-02T04:56:26;30.90;;;13.85;;
26271;SDS011;13997;48.902;12.472;2023-03-02T04:58:52;37.65;;;15.18;;
26271;SDS011;13997;48.902;12.472;2023-03-02T05:01:18;33.42;;;15.75;;
26271;SDS011;13997;48.902;12.472;2023-03-02T05:03:45;27.17;;;14.57;;
26271;SDS011;13997;48.902;12.472;2023-03-02T05:06:11;31.02;;;15.18;;
26271;SDS011;13997;48.902;12.472;2023-03-02T05:08:37;34.20;;;14.77;;
26271;SDS011;13997;48.902;12.472;2023-03-02T05:11:03;26.10;;;13.82;;
26271;SDS011;13997;48.902;12.472;2023-03-02T05:13:30;32.55;;;14.80;;
26271;SDS011;13997;48.902;12.472;2023-03-02T05:15:56;33.45;;;14.95;;
26271;SDS011;13997;48.902;12.472;2023-03-02T05:18:22;35.58;;;15.32;;
26271;SDS011;13997;48.902;12.472;2023-03-02T05:20:49;34.80;;;15.88;;
26271;SDS011;13997;48.902;12.472;2023-03-02T05:23:16;34.92;;;16.27;;
26271;SDS011;13997;48.902;12.472;2023-03-02T05:25:52;30.60;;;15.07;;
26271;SDS011;13997;48.902;12.472;2023-03-02T05:30:45;37.95;;;14.57;;
26271;SDS011;13997;48.902;12.472;2023-03-02T05:33:12;32.83;;;14.85;;
26271;SDS011;13997;48.902;12.472;2023-03-02T05:35:38;35.58;;;14.90;;
26271;SDS011;13997;48.902;12.472;2023-03-02T05:38:04;31.20;;;14.70;;
26271;SDS011;13997;48.902;12.472;2023-03-02T05:40:30;31.88;;;15.43;;
26271;SDS011;13997;48.902;12.472;2023-03-02T05:42:56;36.80;;;15.07;;
26271;SDS011;13997;48.902;12.472;2023-03-02T05:45:26;32.38;;;14.57;;
26271;SDS011;13997;48.902;12.472;2023-03-02T05:47:53;32.15;;;13.93;;
26271;SDS011;13997;48.902;12.472;2023-03-02T05:50:19;33.35;;;15.05;;
26271;SDS011;13997;48.902;12.472;2023-03-02T05:52:45;41.38;;;17.38;;
26271;SDS011;13997;48.902;12.472;2023-03-02T05:55:11;37.15;;;16.77;;
26271;SDS011;13997;48.902;12.472;2023-03-02T05:57:38;40.08;;;16.63;;
26271;SDS011;13997;48.902;12.472;2023-03-02T06:00:04;41.25;;;16.75;;
26271;SDS011;13997;48.902;12.472;2023-03-02T06:02:30;37.35;;;16.13;;
26271;SDS011;13997;48.902;12.472;2023-03-02T06:04:56;37.28;;;15.00;;
26271;SDS011;13997;48.902;12.472;2023-03-02T06:07:22;44.75;;;14.52;;
26271;SDS011;13997;48.902;12.472;2023-03-02T06:09:47;37.78;;;15.30;;
26271;SDS011;13997;48.902;12.472;2023-03-02T06:12:14;44.53;;;17.52;;
26271;SDS011;13997;48.902;12.472;2023-03-02T06:14:41;49.50;;;18.15;;
26271;SDS011;13997;48.902;12.472;2023-03-02T06:17:07;53.03;;;20.77;;
26271;SDS011;13997;48.902;12.472;2023-03-02T06:19:33;59.35;;;23.20;;
26271;SDS011;13997;48.902;12.472;2023-03-02T06:21:59;55.20;;;19.15;;
26271;SDS011;13997;48.902;12.472;2023-03-02T06:24:24;49.55;;;19.10;;
26271;SDS011;13997;48.902;12.472;2023-03-02T06:26:51;46.30;;;17.90;;
26271;SDS011;13997;48.902;12.472;2023-03-02T06:29:18;39.05;;;16.77;;
26271;SDS011;13997;48.902;12.472;2023-03-02T06:31:44;31.65;;;15.55;;
26271;SDS011;13997;48.902;12.472;2023-03-02T06:34:09;46.75;;;18.88;;
26271;SDS011;13997;48.902;12.472;2023-03-02T06:36:35;55.95;;;20.35;;
26271;SDS011;13997;48.902;12.472;2023-03-02T06:39:02;58.97;;;21.75;;
26271;SDS011;13997;48.902;12.472;2023-03-02T06:41:29;65.13;;;24.75;;
26271;SDS011;13997;48.902;12.472;2023-03-02T06:43:54;66.85;;;24.13;;
26271;SDS011;13997;48.902;12.472;2023-03-02T06:46:20;61.03;;;23.70;;
26271;SDS011;13997;48.902;12.472;2023-03-02T06:48:46;56.67;;;22.90;;
26271;SDS011;13997;48.902;12.472;2023-03-02T06:51:11;53.20;;;21.38;;
26271;SDS011;13997;48.902;12.472;2023-03-02T06:53:37;56.47;;;20.48;;
26271;SDS011;13997;48.902;12.472;2023-03-02T06:56:02;48.63;;;19.65;;
26271;SDS011;13997;48.902;12.472;2023-03-02T06:58:28;61.30;;;20.90;;
26271;SDS011;13997;48.902;12.472;2023-03-02T07:00:54;50.22;;;20.92;;
26271;SDS011;13997;48.902;12.472;2023-03-02T07:03:19;49.70;;;22.15;;
26271;SDS011;13997;48.902;12.472;2023-03-02T07:05:45;48.45;;;21.95;;
26271;SDS011;13997;48.902;12.472;2023-03-02T07:08:12;41.20;;;18.35;;
26271;SDS011;13997;48.902;12.472;2023-03-02T07:10:38;38.63;;;17.38;;
26271;SDS011;13997;48.902;12.472;2023-03-02T07:13:04;41.25;;;19.10;;
26271;SDS011;13997;48.902;12.472;2023-03-02T07:15:29;40.97;;;18.15;;
26271;SDS011;13997;48.902;12.472;2023-03-02T07:17:55;40.40;;;18.52;;
26271;SDS011;13997;48.902;12.472;2023-03-02T07:20:21;41.85;;;18.08;;
26271;SDS011;13997;48.902;12.472;2023-03-02T07:22:46;38.13;;;17.83;;
26271;SDS011;13997;48.902;12.472;2023-03-02T07:25:12;42.78;;;19.30;;
26271;SDS011;13997;48.902;12.472;2023-03-02T07:27:38;34.80;;;18.25;;
26271;SDS011;13997;48.902;12.472;2023-03-02T07:30:04;38.92;;;18.85;;
26271;SDS011;13997;48.902;12.472;2023-03-02T07:32:30;42.25;;;19.08;;
26271;SDS011;13997;48.902;12.472;2023-03-02T07:34:56;42.10;;;19.38;;
26271;SDS011;13997;48.902;12.472;2023-03-02T07:37:22;46.88;;;20.13;;
26271;SDS011;13997;48.902;12.472;2023-03-02T07:39:47;41.28;;;19.77;;
26271;SDS011;13997;48.902;12.472;2023-03-02T07:42:14;42.55;;;20.05;;
26271;SDS011;13997;48.902;12.472;2023-03-02T07:44:40;46.45;;;20.33;;
26271;SDS011;13997;48.902;12.472;2023-03-02T07:47:06;45.85;;;19.20;;
26271;SDS011;13997;48.902;12.472;2023-03-02T07:49:32;44.17;;;21.15;;
26271;SDS011;13997;48.902;12.472;2023-03-02T07:51:59;42.95;;;19.65;;
26271;SDS011;13997;48.902;12.472;2023-03-02T07:54:25;43.75;;;20.85;;
26271;SDS011;13997;48.902;12.472;2023-03-02T07:56:54;46.38;;;20.92;;
26271;SDS011;13997;48.902;12.472;2023-03-02T07:59:21;41.83;;;20.10;;
26271;SDS011;13997;48.902;12.472;2023-03-02T08:01:46;41.92;;;20.17;;
26271;SDS011;13997;48.902;12.472;2023-03-02T08:04:12;38.40;;;18.85;;
26271;SDS011;13997;48.902;12.472;2023-03-02T08:06:38;39.33;;;17.92;;
26271;SDS011;13997;48.902;12.472;2023-03-02T08:09:03;42.08;;;19.23;;
26271;SDS011;13997;48.902;12.472;2023-03-02T08:11:29;34.60;;;17.98;;
26271;SDS011;13997;48.902;12.472;2023-03-02T08:13:57;38.58;;;18.08;;
26271;SDS011;13997;48.902;12.472;2023-03-02T08:16:24;40.40;;;18.60;;
26271;SDS011;13997;48.902;12.472;2023-03-02T08:18:51;41.90;;;18.92;;
26271;SDS011;13997;48.902;12.472;2023-03-02T08:21:18;41.83;;;18.20;;
26271;SDS011;13997;48.902;12.472;2023-03-02T08:23:45;38.33;;;17.67;;
26271;SDS011;13997;48.902;12.472;2023-03-02T08:26:12;39.70;;;17.30;;
26271;SDS011;13997;48.902;12.472;2023-03-02T08:28:39;34.67;;;17.27;;
26271;SDS011;13997;48.902;12.472;2023-03-02T08:31:05;31.60;;;16.58;;
26271;SDS011;13997;48.902;12.472;2023-03-02T08:33:32;35.83;;;16.58;;
26271;SDS011;13997;48.902;12.472;2023-03-02T08:36:02;38.72;;;17.42;;
26271;SDS011;13997;48.902;12.472;2023-03-02T08:38:31;32.45;;;15.77;;
26271;SDS011;13997;48.902;12.472;2023-03-02T08:40:57;37.38;;;16.77;;
26271;SDS011;13997;48.902;12.472;2023-03-02T08:43:26;35.08;;;16.73;;
26271;SDS011;13997;48.902;12.472;2023-03-02T08:45:52;32.28;;;16.88;;
26271;SDS011;13997;48.902;12.472;2023-03-02T08:48:19;38.50;;;18.33;;
26271;SDS011;13997;48.902;12.472;2023-03-02T08:50:56;33.15;;;16.40;;
26271;SDS011;13997;48.902;12.472;2023-03-02T08:53:23;42.40;;;16.48;;
26271;SDS011;13997;48.902;12.472;2023-03-02T08:55:49;34.35;;;17.45;;
26271;SDS011;13997;48.902;12.472;2023-03-02T08:58:15;34.95;;;16.80;;
26271;SDS011;13997;48.902;12.472;2023-03-02T09:00:41;32.53;;;16.70;;
26271;SDS011;13997;48.902;12.472;2023-03-02T09:03:06;37.58;;;16.52;;
26271;SDS011;13997;48.902;12.472;2023-03-02T09:05:32;32.80;;;16.30;;
26271;SDS011;13997;48.902;12.472;2023-03-02T09:07:58;30.92;;;15.95;;
26271;SDS011;13997;48.902;12.472;2023-03-02T09:10:23;28.23;;;15.50;;
26271;SDS011;13997;48.902;12.472;2023-03-02T09:12:49;33.15;;;17.02;;
26271;SDS011;13997;48.902;12.472;2023-03-02T09:15:15;29.92;;;16.10;;
26271;SDS011;13997;48.902;12.472;2023-03-02T09:17:40;31.10;;;16.25;;
26271;SDS011;13997;48.902;12.472;2023-03-02T09:20:06;33.88;;;14.43;;
26271;SDS011;13997;48.902;12.472;2023-03-02T09:22:33;32.00;;;15.43;;
26271;SDS011;13997;48.902;12.472;2023-03-02T09:25:00;29.85;;;14.77;;
26271;SDS011;13997;48.902;12.472;2023-03-02T09:27:27;36.55;;;15.85;;
26271;SDS011;13997;48.902;12.472;2023-03-02T09:29:52;30.40;;;16.08;;
26271;SDS011;13997;48.902;12.472;2023-03-02T09:32:18;32.28;;;15.25;;
26271;SDS011;13997;48.902;12.472;2023-03-02T09:34:44;36.30;;;14.95;;
26271;SDS011;13997;48.902;12.472;2023-03-02T09:37:09;36.00;;;15.75;;
26271;SDS011;13997;48.902;12.472;2023-03-02T09:39:35;32.13;;;15.07;;
26271;SDS011;13997;48.902;12.472;2023-03-02T09:42:09;29.52;;;15.15;;
26271;SDS011;13997;48.902;12.472;2023-03-02T09:44:49;27.83;;;14.00;;
26271;SDS011;13997;48.902;12.472;2023-03-02T09:47:37;29.98;;;14.55;;
26271;SDS011;13997;48.902;12.472;2023-03-02T09:50:30;27.00;;;13.63;;
26271;SDS011;13997;48.902;12.472;2023-03-02T09:53:13;35.25;;;15.45;;
26271;SDS011;13997;48.902;12.472;2023-03-02T09:56:00;28.30;;;13.60;;
26271;SDS011;13997;48.902;12.472;2023-03-02T09:58:36;34.17;;;13.75;;
26271;SDS011;13997;48.902;12.472;2023-03-02T10:01:08;38.20;;;13.27;;
26271;SDS011;13997;48.902;12.472;2023-03-02T10:03:40;33.85;;;13.90;;
26271;SDS011;13997;48.902;12.472;2023-03-02T10:06:14;26.30;;;12.27;;
26271;SDS011;13997;48.902;12.472;2023-03-02T10:08:39;33.58;;;11.48;;
26271;SDS011;13997;48.902;12.472;2023-03-02T10:13:45;23.48;;;11.50;;
26271;SDS011;13997;48.902;12.472;2023-03-02T10:19:05;28.60;;;11.65;;
26271;SDS011;13997;48.902;12.472;2023-03-02T10:21:34;28.15;;;10.63;;
26271;SDS011;13997;48.902;12.472;2023-03-02T10:24:11;29.88;;;11.13;;
26271;SDS011;13997;48.902;12.472;2023-03-02T10:26:54;30.02;;;9.70;;
26271;SDS011;13997;48.902;12.472;2023-03-02T10:31:59;27.20;;;11.18;;
26271;SDS011;13997;48.902;12.472;2023-03-02T10:34:37;26.40;;;12.68;;
26271;SDS011;13997;48.902;12.472;2023-03-02T10:37:08;28.85;;;10.80;;
26271;SDS011;13997;48.902;12.472;2023-03-02T10:39:36;27.77;;;10.43;;
26271;SDS011;13997;48.902;12.472;2023-03-02T10:42:02;24.33;;;10.68;;
26271;SDS011;13997;48.902;12.472;2023-03-02T10:44:44;26.08;;;10.38;;
26271;SDS011;13997;48.902;12.472;2023-03-02T10:47:24;20.90;;;9.13;;
26271;SDS011;13997;48.902;12.472;2023-03-02T10:49:50;29.35;;;10.43;;
26271;SDS011;13997;48.902;12.472;2023-03-02T10:52:18;27.25;;;9.75;;
26271;SDS011;13997;48.902;12.472;2023-03-02T10:54:45;23.48;;;10.77;;
26271;SDS011;13997;48.902;12.472;2023-03-02T11:02:22;27.45;;;10.95;;
26271;SDS011;13997;48.902;12.472;2023-03-02T11:04:51;25.05;;;9.65;;
26271;SDS011;13997;48.902;12.472;2023-03-02T11:07:19;25.92;;;10.30;;
26271;SDS011;13997;48.902;12.472;2023-03-02T11:12:45;23.70;;;9.85;;
26271;SDS011;13997;48.902;12.472;2023-03-02T11:17:37;29.35;;;9.93;;
26271;SDS011;13997;48.902;12.472;2023-03-02T11:20:04;19.50;;;8.68;;
26271;SDS011;13997;48.902;12.472;2023-03-02T11:22:38;19.88;;;9.13;;
26271;SDS011;13997;48.902;12.472;2023-03-02T11:25:11;25.83;;;9.20;;
26271;SDS011;13997;48.902;12.472;2023-03-02T11:27:45;24.35;;;8.80;;
26271;SDS011;13997;48.902;12.472;2023-03-02T11:30:16;27.65;;;9.18;;
26271;SDS011;13997;48.902;12.472;2023-03-02T11:33:08;22.35;;;9.15;;
26271;SDS011;13997;48.902;12.472;2023-03-02T11:35:50;23.25;;;9.82;;
26271;SDS011;13997;48.902;12.472;2023-03-02T11:38:26;23.98;;;9.00;;
26271;SDS011;13997;48.902;12.472;2023-03-02T11:40:59;26.75;;;9.40;;
26271;SDS011;13997;48.902;12.472;2023-03-02T11:43:34;29.88;;;9.80;;
26271;SDS011;13997;48.902;12.472;2023-03-02T11:46:01;27.67;;;8.38;;
26271;SDS011;13997;48.902;12.472;2023-03-02T11:48:32;25.85;;;9.02;;
26271;SDS011;13997;48.902;12.472;2023-03-02T11:51:13;23.33;;;9.40;;
26271;SDS011;13997;48.902;12.472;2023-03-02T11:53:57;25.50;;;8.90;;
26271;SDS011;13997;48.902;12.472;2023-03-02T11:56:28;33.47;;;9.45;;
26271;SDS011;13997;48.902;12.472;2023-03-02T11:58:56;23.73;;;8.68;;
26271;SDS011;13997;48.902;12.472;2023-03-02T12:01:25;23.25;;;10.10;;
26271;SDS011;13997;48.902;12.472;2023-03-02T12:03:52;22.08;;;8.60;;
26271;SDS011;13997;48.902;12.472;2023-03-02T12:08:48;22.88;;;9.52;;
26271;SDS011;13997;48.902;12.472;2023-03-02T12:13:57;23.00;;;9.88;;
26271;SDS011;13997;48.902;12.472;2023-03-02T12:18:50;25.65;;;9.10;;
26271;SDS011;13997;48.902;12.472;2023-03-02T12:21:19;33.15;;;9.45;;
26271;SDS011;13997;48.902;12.472;2023-03-02T12:28:57;30.33;;;9.88;;
26271;SDS011;13997;48.902;12.472;2023-03-02T12:31:24;21.00;;;8.18;;
26271;SDS011;13997;48.902;12.472;2023-03-02T12:33:51;25.83;;;8.10;;
26271;SDS011;13997;48.902;12.472;2023-03-02T12:38:57;23.02;;;8.15;;
26271;SDS011;13997;48.902;12.472;2023-03-02T12:46:37;25.35;;;8.73;;
26271;SDS011;13997;48.902;12.472;2023-03-02T12:51:55;24.50;;;9.00;;
26271;SDS011;13997;48.902;12.472;2023-03-02T12:54:31;22.15;;;9.85;;
26271;SDS011;13997;48.902;12.472;2023-03-02T12:59:33;20.65;;;9.32;;
26271;SDS011;13997;48.902;12.472;2023-03-02T13:02:03;27.38;;;9.48;;
26271;SDS011;13997;48.902;12.472;2023-03-02T13:04:43;22.25;;;10.20;;
26271;SDS011;13997;48.902;12.472;2023-03-02T13:07:18;27.52;;;9.40;;
26271;SDS011;13997;48.902;12.472;2023-03-02T13:09:50;26.92;;;9.13;;
26271;SDS011;13997;48.902;12.472;2023-03-02T13:12:18;29.52;;;9.45;;
26271;SDS011;13997;48.902;12.472;2023-03-02T13:14:45;27.50;;;9.15;;
26271;SDS011;13997;48.902;12.472;2023-03-02T13:17:26;31.95;;;10.88;;
26271;SDS011;13997;48.902;12.472;2023-03-02T13:19:54;23.58;;;9.88;;
26271;SDS011;13997;48.902;12.472;2023-03-02T13:22:24;25.70;;;9.73;;
26271;SDS011;13997;48.902;12.472;2023-03-02T13:25:00;24.73;;;9.07;;
26271;SDS011;13997;48.902;12.472;2023-03-02T13:27:29;21.15;;;9.57;;
26271;SDS011;13997;48.902;12.472;2023-03-02T13:29:55;21.75;;;8.43;;
26271;SDS011;13997;48.902;12.472;2023-03-02T13:32:35;21.42;;;8.82;;
26271;SDS011;13997;48.902;12.472;2023-03-02T13:35:13;24.95;;;8.23;;
26271;SDS011;13997;48.902;12.472;2023-03-02T13:37:44;26.30;;;8.80;;
26271;SDS011;13997;48.902;12.472;2023-03-02T13:40:44;23.40;;;8.52;;
26271;SDS011;13997;48.902;12.472;2023-03-02T13:43:17;25.13;;;9.27;;
26271;SDS011;13997;48.902;12.472;2023-03-02T13:48:31;25.77;;;9.30;;
26271;SDS011;13997;48.902;12.472;2023-03-02T13:51:02;21.17;;;8.68;;
26271;SDS011;13997;48.902;12.472;2023-03-02T13:53:40;23.90;;;9.32;;
26271;SDS011;13997;48.902;12.472;2023-03-02T13:56:14;19.52;;;8.27;;
26271;SDS011;13997;48.902;12.472;2023-03-02T13:58:42;21.30;;;7.88;;
26271;SDS011;13997;48.902;12.472;2023-03-02T14:01:09;21.00;;;8.50;;
26271;SDS011;13997;48.902;12.472;2023-03-02T14:03:36;30.25;;;8.68;;
26271;SDS011;13997;48.902;12.472;2023-03-02T14:06:02;22.08;;;8.95;;
26271;SDS011;13997;48.902;12.472;2023-03-02T14:08:30;22.58;;;8.45;;
26271;SDS011;13997;48.902;12.472;2023-03-02T14:10:56;22.98;;;8.48;;
26271;SDS011;13997;48.902;12.472;2023-03-02T14:13:29;20.60;;;9.02;;
26271;SDS011;13997;48.902;12.472;2023-03-02T14:15:59;22.58;;;8.93;;
26271;SDS011;13997;48.902;12.472;2023-03-02T14:18:28;20.83;;;7.88;;
26271;SDS011;13997;48.902;12.472;2023-03-02T14:20:59;19.27;;;7.38;;
26271;SDS011;13997;48.902;12.472;2023-03-02T14:23:25;17.15;;;7.63;;
26271;SDS011;13997;48.902;12.472;2023-03-02T14:25:52;22.60;;;8.45;;
26271;SDS011;13997;48.902;12.472;2023-03-02T14:28:21;24.63;;;8.30;;
26271;SDS011;13997;48.902;12.472;2023-03-02T14:30:52;23.77;;;8.15;;
26271;SDS011;13997;48.902;12.472;2023-03-02T14:33:19;19.15;;;7.80;;
26271;SDS011;13997;48.902;12.472;2023-03-02T14:35:46;23.95;;;8.35;;
26271;SDS011;13997;48.902;12.472;2023-03-02T14:38:13;26.45;;;8.80;;
26271;SDS011;13997;48.902;12.472;2023-03-02T14:40:38;25.10;;;8.95;;
26271;SDS011;13997;48.902;12.472;2023-03-02T14:43:04;21.35;;;8.75;;
26271;SDS011;13997;48.902;12.472;2023-03-02T14:45:30;22.08;;;9.82;;
26271;SDS011;13997;48.902;12.472;2023-03-02T14:47:55;30.00;;;9.30;;
26271;SDS011;13997;48.902;12.472;2023-03-02T14:50:21;27.30;;;9.38;;
26271;SDS011;13997;48.902;12.472;2023-03-02T14:52:50;24.38;;;8.32;;
26271;SDS011;13997;48.902;12.472;2023-03-02T14:55:26;20.33;;;9.20;;
26271;SDS011;13997;48.902;12.472;2023-03-02T14:57:54;27.52;;;9.15;;
26271;SDS011;13997;48.902;12.472;2023-03-02T15:00:26;21.92;;;8.68;;
26271;SDS011;13997;48.902;12.472;2023-03-02T15:03:00;22.33;;;8.63;;
26271;SDS011;13997;48.902;12.472;2023-03-02T15:05:26;21.80;;;9.23;;
26271;SDS011;13997;48.902;12.472;2023-03-02T15:07:51;20.95;;;8.73;;
26271;SDS011;13997;48.902;12.472;2023-03-02T15:10:18;26.60;;;8.70;;
26271;SDS011;13997;48.902;12.472;2023-03-02T15:12:45;28.35;;;8.98;;
26271;SDS011;13997;48.902;12.472;2023-03-02T15:15:11;24.63;;;10.10;;